Time;durP1;ratioP1;P1;durP2;ratioP2;P2;SDS_P1;SDS_P2;PMS_P1;PMS_P2;Temp;Humidity;BMP_temperature;BMP_pressure;BME280_temperature;BME280_humidity;BME280_pressure;Samples;Min_cycle;Max_cycle;Signal;HPM_P1;HPM_P2
2023/07/10 00:01:24;;;;;;;4.70;2.90;;;;;;;17.30;62.18;101102.38;105904;1256;99199;-77
2023/07/10 00:04:15;;;;;;;5.10;3.10;;;;;;;17.29;62.15;101102.35;106092;1260;97751;-79
2023/07/10 00:07:00;;;;;;;;;;;;;;;17.29;62.35;101095.23;105969;1253;95845;-78
2023/07/10 00:09:46;;;;;;;5.60;3.10;;;;;;;17.24;62.41;101093.29;105992;1255;96379;-79
2023/07/10 00:12:32;;;;;;;5.20;3.40;;;;;;;17.17;62.31;101087.84;105975;1255;98602;-79
2023/07/10 00:15:20;;;;;;;5.30;3.40;;;;;;;17.10;62.36;101085.30;105912;1251;100860;-79
2023/07/10 00:18:18;;;;;;;4.20;3.10;;;;;;;17.03;62.61;101087.89;106048;1263;98024;-78
2023/07/10 00:21:04;;;;;;;5.00;3.20;;;;;;;16.93;62.84;101087.80;105893;1259;97233;-79
2023/07/10 00:23:49;;;;;;;5.40;3.10;;;;;;;16.86;63.06;101085.06;105639;1258;97176;-79
2023/07/10 00:26:37;;;;;;;4.40;3.60;;;;;;;16.79;63.20;101086.88;105670;1256;98708;-78
2023/07/10 00:29:31;;;;;;;4.30;3.80;;;;;;;16.73;63.70;101091.90;105607;1255;100153;-78
2023/07/10 00:32:18;;;;;;;5.00;3.40;;;;;;;16.67;63.87;101091.43;105629;1258;97720;-78
2023/07/10 00:35:05;;;;;;;5.50;3.70;;;;;;;16.61;64.24;101089.54;105543;1258;96172;-79
2023/07/10 00:38:01;;;;;;;8.00;3.60;;;;;;;16.56;64.66;101090.31;105733;1258;95999;-79
2023/07/10 00:40:47;;;;;;;4.70;3.90;;;;;;;16.50;64.86;101089.94;105902;1258;98630;-78
2023/07/10 00:43:39;;;;;;;9.30;3.80;;;;;;;16.46;65.18;101089.39;105627;1258;100122;-78
2023/07/10 00:46:42;;;;;;;5.50;3.90;;;;;;;16.43;65.11;101089.70;105896;1258;97737;-78
2023/07/10 00:49:40;;;;;;;5.80;3.50;;;;;;;16.41;65.05;101087.66;105486;1255;96415;-78
2023/07/10 00:52:38;;;;;;;7.10;3.80;;;;;;;16.39;65.11;101089.88;105486;1258;96138;-78
2023/07/10 00:55:36;;;;;;;4.40;3.70;;;;;;;16.41;64.99;101096.27;105606;1256;99795;-78
2023/07/10 00:58:26;;;;;;;4.80;3.70;;;;;;;16.39;65.05;101098.93;105595;1258;100408;-78
2023/07/10 01:01:15;;;;;;;4.90;3.90;;;;;;;16.36;65.04;101096.83;105501;1256;97693;-79
2023/07/10 01:04:02;;;;;;;7.90;3.70;;;;;;;16.38;65.19;101097.08;105640;1258;95907;-79
2023/07/10 01:06:48;;;;;;;7.70;3.80;;;;;;;16.38;65.22;101096.23;105469;1258;96187;-78
2023/07/10 01:09:35;;;;;;;4.90;4.20;;;;;;;16.31;65.21;101094.48;105423;1258;98687;-77
2023/07/10 01:12:21;;;;;;;7.40;4.20;;;;;;;16.24;65.32;101094.65;105580;1256;99137;-78
2023/07/10 01:15:08;;;;;;;6.90;5.20;;;;;;;16.22;65.31;101096.73;105557;1256;99088;-78
2023/07/10 01:17:53;;;;;;;7.30;4.20;;;;;;;16.20;65.70;101090.04;105627;1260;96335;-79
2023/07/10 01:20:44;;;;;;;5.00;4.20;;;;;;;16.13;66.07;101091.19;106654;1255;96166;-79
2023/07/10 01:23:29;;;;;;;6.20;4.00;;;;;;;16.06;66.01;101086.95;106048;1259;98712;-78
2023/07/10 01:26:15;;;;;;;4.80;3.70;;;;;;;16.00;65.89;101085.38;105619;1258;101001;-79
2023/07/10 01:29:02;;;;;;;6.50;4.00;;;;;;;15.94;65.89;101086.44;105481;1258;97759;-78
2023/07/10 01:31:50;;;;;;;7.60;3.90;;;;;;;15.91;66.19;101089.98;105625;1261;95832;-79
2023/07/10 01:34:55;;;;;;;5.80;3.80;;;;;;;15.89;66.50;101087.27;105805;1258;95891;-77
2023/07/10 01:37:41;;;;;;;6.70;4.40;;;;;;;15.87;66.87;101083.45;105535;1256;98665;-78
2023/07/10 01:40:36;;;;;;;6.40;4.10;;;;;;;15.82;66.75;101088.48;105568;1256;99845;-78
2023/07/10 01:43:22;;;;;;;5.70;4.40;;;;;;;15.70;66.68;101085.74;105743;1256;97721;-78
2023/07/10 01:46:21;;;;;;;4.90;3.40;;;;;;;15.60;66.94;101085.00;105670;1256;96446;-78
2023/07/10 01:49:07;;;;;;;4.00;3.60;;;;;;;15.55;67.07;101082.02;105617;1261;97032;-78
2023/07/10 01:51:55;;;;;;;6.80;4.10;;;;;;;15.54;67.27;101078.14;105472;1258;98658;-79
2023/07/10 01:54:42;;;;;;;7.50;4.50;;;;;;;15.54;67.19;101075.98;105573;1256;108593;-78
2023/07/10 01:57:28;;;;;;;9.50;5.00;;;;;;;15.59;67.42;101074.62;106148;1258;97822;-77
2023/07/10 02:00:14;;;;;;;6.80;4.30;;;;;;;15.62;67.48;101067.88;105333;1258;95867;-78
2023/07/10 02:03:01;;;;;;;6.30;4.30;;;;;;;15.62;67.11;101061.19;105568;1256;96665;-78
2023/07/10 02:05:47;;;;;;;5.90;4.50;;;;;;;15.60;67.21;101062.73;105648;1258;98826;-79
2023/07/10 02:08:33;;;;;;;7.20;4.70;;;;;;;15.55;67.13;101061.98;105613;1258;99053;-78
2023/07/10 02:11:19;;;;;;;7.70;4.70;;;;;;;15.53;67.26;101063.31;105579;1256;97780;-79
2023/07/10 02:14:06;;;;;;;9.90;6.80;;;;;;;15.53;67.52;101064.05;106251;1258;95948;-78
2023/07/10 02:16:52;;;;;;;9.70;6.70;;;;;;;15.52;67.79;101068.63;105581;1256;95809;-79
2023/07/10 02:19:37;;;;;;;9.20;6.50;;;;;;;15.46;67.77;101066.91;105275;1254;99987;-77
2023/07/10 02:22:23;;;;;;;14.10;8.00;;;;;;;15.37;67.85;101063.73;105720;1258;99056;-79
2023/07/10 02:25:08;;;;;;;8.40;6.00;;;;;;;15.33;68.18;101061.90;105540;1258;97736;-79
2023/07/10 02:27:54;;;;;;;9.80;5.70;;;;;;;15.31;68.23;101060.85;105530;1259;95812;-78
2023/07/10 02:30:39;;;;;;;8.60;4.70;;;;;;;15.30;68.29;101066.21;105336;1259;97093;-80
2023/07/10 02:33:25;;;;;;;5.30;4.00;;;;;;;15.31;68.33;101065.50;106202;1254;99944;-78
2023/07/10 02:36:10;;;;;;;6.70;5.00;;;;;;;15.31;68.24;101064.09;106572;1254;99137;-78
2023/07/10 02:38:56;;;;;;;10.00;5.50;;;;;;;15.29;68.27;101065.30;105415;1256;98641;-78
2023/07/10 02:41:42;;;;;;;6.70;4.80;;;;;;;15.27;68.46;101062.51;105571;1258;95877;-79
2023/07/10 02:44:28;;;;;;;13.40;5.20;;;;;;;15.24;68.42;101063.13;105623;1260;96129;-77
2023/07/10 02:47:14;;;;;;;6.30;4.90;;;;;;;15.19;68.46;101057.11;105685;1259;98641;-79
2023/07/10 02:50:01;;;;;;;8.70;5.00;;;;;;;15.13;68.48;101061.58;105656;1258;99093;-79
2023/07/10 02:52:47;;;;;;;6.40;5.10;;;;;;;15.09;68.78;101064.60;105627;1256;98638;-79
2023/07/10 02:55:33;;;;;;;5.00;4.30;;;;;;;14.99;68.79;101060.39;105605;1258;95919;-78
2023/07/10 02:58:18;;;;;;;5.10;3.90;;;;;;;14.81;69.18;101060.17;105567;1262;95797;-79
2023/07/10 03:01:04;;;;;;;4.50;4.10;;;;;;;14.67;69.55;101063.61;105563;1258;98669;-78
2023/07/10 03:03:50;;;;;;;8.60;4.30;;;;;;;14.63;69.83;101063.89;105537;1256;99126;-79
2023/07/10 03:06:36;;;;;;;4.80;3.50;;;;;;;14.60;70.01;101070.14;105499;1261;98376;-79
2023/07/10 03:09:21;;;;;;;6.90;4.20;;;;;;;14.55;70.22;101073.45;105372;1256;96505;-79
2023/07/10 03:12:08;;;;;;;5.00;4.10;;;;;;;14.48;70.55;101070.25;106207;1258;95831;-79
2023/07/10 03:14:54;;;;;;;5.10;4.30;;;;;;;14.44;70.96;101072.27;106088;1255;98594;-79
2023/07/10 03:17:41;;;;;;;5.50;4.50;;;;;;;14.39;71.20;101073.36;106319;1257;99187;-80
2023/07/10 03:20:27;;;;;;;5.40;4.40;;;;;;;14.39;71.40;101078.84;106326;1256;97771;-78
2023/07/10 03:23:12;;;;;;;5.70;4.30;;;;;;;14.41;71.82;101084.15;105529;1258;97262;-79
2023/07/10 03:25:58;;;;;;;5.80;4.00;;;;;;;14.45;72.14;101083.92;105538;1256;95897;-78
2023/07/10 03:28:44;;;;;;;6.60;4.10;;;;;;;14.50;72.41;101086.48;105591;1271;98712;-79
2023/07/10 03:31:31;;;;;;;5.70;4.80;;;;;;;14.57;72.71;101085.94;105737;1260;101062;-79
2023/07/10 03:34:16;;;;;;;5.80;4.90;;;;;;;14.67;72.79;101087.92;105939;1259;98716;-79
2023/07/10 03:37:03;;;;;;;7.60;5.40;;;;;;;14.79;73.11;101082.42;105547;1259;95833;-79
2023/07/10 03:39:48;;;;;;;4.60;4.00;;;;;;;14.89;73.52;101081.73;105627;1259;96262;-78
2023/07/10 03:42:34;;;;;;;6.10;4.20;;;;;;;15.00;73.47;101081.67;105529;1258;99897;-79
2023/07/10 03:45:19;;;;;;;6.90;5.10;;;;;;;15.11;73.89;101082.33;105621;1256;99196;-79
2023/07/10 03:48:05;;;;;;;5.80;5.10;;;;;;;15.18;74.13;101077.08;105595;1258;99678;-79
2023/07/10 03:50:51;;;;;;;5.60;4.30;;;;;;;15.24;73.75;101079.83;105625;1256;95911;-79
2023/07/10 03:53:37;;;;;;;5.40;4.70;;;;;;;15.31;74.11;101082.70;105678;1258;95855;-78
2023/07/10 03:56:22;;;;;;;8.20;4.40;;;;;;;15.39;74.24;101087.12;106920;1256;100566;-79
2023/07/10 03:59:08;;;;;;;7.30;5.00;;;;;;;15.46;74.25;101089.02;105689;1256;100352;-78
2023/07/10 04:01:53;;;;;;;5.60;5.00;;;;;;;15.51;74.25;101091.55;105608;1261;98449;-79
2023/07/10 04:04:39;;;;;;;6.90;4.80;;;;;;;15.54;74.22;101091.06;105623;1258;95929;-78
2023/07/10 04:07:25;;;;;;;6.50;4.50;;;;;;;15.59;74.17;101095.34;105951;1259;95897;-79
2023/07/10 04:10:10;;;;;;;5.60;4.70;;;;;;;15.60;74.63;101097.67;105904;1256;98657;-80
2023/07/10 04:12:56;;;;;;;6.50;4.60;;;;;;;15.62;74.90;101100.19;106054;1258;99050;-80
2023/07/10 04:15:41;;;;;;;6.00;4.80;;;;;;;15.69;74.91;101103.44;106534;1256;98879;-79
2023/07/10 04:18:29;;;;;;;6.60;5.40;;;;;;;15.79;74.77;101105.40;105996;1258;96605;-79
2023/07/10 04:21:27;;;;;;;6.40;4.90;;;;;;;15.92;74.67;101106.83;108035;1258;96386;-80
2023/07/10 04:24:12;;;;;;;7.00;5.40;;;;;;;16.09;74.68;101109.16;106443;1258;99975;-79
2023/07/10 04:26:57;;;;;;;9.40;5.60;;;;;;;16.26;74.65;101108.88;105989;1256;99063;-79
2023/07/10 04:29:43;;;;;;;6.80;5.20;;;;;;;16.43;74.79;101114.95;106028;1258;97782;-80
2023/07/10 04:32:28;;;;;;;8.30;5.10;;;;;;;16.60;74.95;101116.05;106048;1257;96558;-79
2023/07/10 04:35:14;;;;;;;5.70;5.10;;;;;;;16.74;75.31;101115.78;106537;1256;97181;-80
2023/07/10 04:38:00;;;;;;;7.40;5.50;;;;;;;16.85;74.77;101116.23;106737;1258;100750;-80
2023/07/10 04:41:13;;;;;;;7.80;4.80;;;;;;;16.91;74.69;101118.88;106622;1258;99113;-80
2023/07/10 04:43:59;;;;;;;5.20;4.70;;;;;;;16.99;74.38;101117.80;106532;1256;97769;-80
2023/07/10 04:46:44;;;;;;;6.70;5.00;;;;;;;17.04;74.75;101116.02;106593;1258;97001;-80
2023/07/10 04:49:30;;;;;;;6.80;4.50;;;;;;;17.10;74.86;101112.82;106549;1258;96511;-79
2023/07/10 04:52:15;;;;;;;7.70;5.00;;;;;;;17.16;74.75;101102.30;106742;1258;101240;-79
2023/07/10 04:55:02;;;;;;;6.80;5.10;;;;;;;17.21;74.93;101100.48;106845;1258;99125;-80
2023/07/10 04:57:48;;;;;;;8.90;5.50;;;;;;;17.31;74.92;101105.60;106591;1256;97854;-79
2023/07/10 05:00:34;;;;;;;5.50;5.00;;;;;;;17.40;74.90;101104.13;106706;1255;96688;-79
2023/07/10 05:03:19;;;;;;;6.90;5.10;;;;;;;17.48;75.15;101103.96;106614;1256;97137;-79
2023/07/10 05:06:05;;;;;;;7.20;5.00;;;;;;;17.54;75.35;101107.27;106437;1258;101244;-79
2023/07/10 05:08:53;;;;;;;8.10;4.60;;;;;;;17.57;75.18;101112.21;106611;1256;99070;-80
2023/07/10 05:11:38;;;;;;;7.80;5.40;;;;;;;17.58;75.34;101108.96;106762;1259;98720;-80
2023/07/10 05:14:24;;;;;;;7.30;4.90;;;;;;;17.62;75.34;101103.88;106724;1256;96970;-80
2023/07/10 05:17:09;;;;;;;5.60;4.70;;;;;;;17.67;75.42;101103.46;106334;1257;97186;-80
2023/07/10 05:19:55;;;;;;;5.90;4.90;;;;;;;17.74;75.47;101101.12;106316;1259;99999;-79
2023/07/10 05:22:41;;;;;;;5.80;4.90;;;;;;;17.82;75.17;101098.89;105919;1260;99165;-79
2023/07/10 05:25:27;;;;;;;6.80;5.20;;;;;;;17.92;74.97;101098.42;105932;1260;99057;-79
2023/07/10 05:28:12;;;;;;;9.60;4.90;;;;;;;18.04;74.74;101099.72;105879;1258;96515;-80
2023/07/10 05:30:59;;;;;;;5.10;4.40;;;;;;;18.17;74.29;101097.91;105830;1258;97436;-79
2023/07/10 05:33:47;;;;;;;8.40;4.90;;;;;;;18.29;74.84;101093.73;105876;1255;100683;-79
2023/07/10 05:36:32;;;;;;;6.10;4.60;;;;;;;18.42;74.89;101095.33;105796;1258;100315;-79
2023/07/10 05:39:18;;;;;;;5.70;4.70;;;;;;;18.54;74.80;101089.83;106071;1258;97763;-79
2023/07/10 05:42:04;;;;;;;5.60;4.70;;;;;;;18.64;74.53;101091.66;106265;1259;96608;-80
2023/07/10 05:44:49;;;;;;;5.30;4.30;;;;;;;18.79;74.43;101087.42;106869;1258;97116;-80
2023/07/10 05:47:35;;;;;;;5.50;4.40;;;;;;;18.93;74.24;101086.78;106626;1258;101971;-79
2023/07/10 05:50:20;;;;;;;7.00;4.40;;;;;;;19.07;74.30;101090.05;106779;1254;100199;-81
2023/07/10 05:53:06;;;;;;;7.70;3.90;;;;;;;19.22;73.89;101091.96;106824;1254;97703;-80
2023/07/10 05:55:54;;;;;;;4.30;3.80;;;;;;;19.39;73.44;101090.48;106923;1255;96499;-80
2023/07/10 05:58:42;;;;;;;4.20;3.80;;;;;;;19.57;73.03;101086.45;106833;1258;97144;-80
2023/07/10 06:01:27;;;;;;;5.00;3.90;;;;;;;19.75;72.58;101086.26;106824;1259;101329;-79
2023/07/10 06:04:13;;;;;;;4.30;3.60;;;;;;;19.93;71.64;101085.60;106929;1254;99524;-81
2023/07/10 06:06:58;;;;;;;7.70;3.60;;;;;;;20.11;70.50;101086.30;106642;1254;99006;-81
2023/07/10 06:09:44;;;;;;;3.50;3.20;;;;;;;20.29;69.82;101084.93;106744;1254;97209;-81
2023/07/10 06:12:29;;;;;;;4.90;2.90;;;;;;;20.48;68.74;101087.85;106805;1259;95850;-80
2023/07/10 06:15:16;;;;;;;5.00;3.40;;;;;;;20.66;67.64;101089.44;106815;1255;100016;-80
2023/07/10 06:18:01;;;;;;;3.50;3.00;;;;;;;20.82;66.05;101090.95;106906;1259;100408;-80
2023/07/10 06:20:58;;;;;;;3.10;2.50;;;;;;;20.94;64.66;101090.39;106958;1254;99046;-80
2023/07/10 06:23:43;;;;;;;3.90;2.80;;;;;;;21.06;64.15;101085.02;106862;1259;96564;-80
2023/07/10 06:26:29;;;;;;;3.30;2.70;;;;;;;21.20;63.85;101086.27;106874;1259;97113;-79
2023/07/10 06:29:14;;;;;;;3.60;2.70;;;;;;;21.32;63.10;101085.23;106548;1254;99971;-79
2023/07/10 06:32:00;;;;;;;3.60;2.80;;;;;;;21.44;62.92;101084.10;106585;1256;100703;-80
2023/07/10 06:34:46;;;;;;;7.10;2.70;;;;;;;21.58;62.27;101083.89;106060;1258;98998;-80
2023/07/10 06:37:32;;;;;;;6.80;2.80;;;;;;;21.67;61.60;101082.80;106145;1259;97073;-79
2023/07/10 06:40:18;;;;;;;4.40;2.90;;;;;;;21.76;61.16;101077.15;106283;1255;98169;-79
2023/07/10 06:43:03;;;;;;;4.40;2.40;;;;;;;21.85;60.82;101076.66;106525;1255;99992;-80
2023/07/10 06:45:50;;;;;;;3.60;2.20;;;;;;;21.94;60.87;101073.60;106773;1254;99095;-80
2023/07/10 06:48:36;;;;;;;2.40;2.20;;;;;;;22.05;60.90;101070.61;106129;1255;97726;-79
2023/07/10 06:51:21;;;;;;;3.30;2.10;;;;;;;22.16;59.98;101066.50;106692;1258;96614;-80
2023/07/10 06:54:07;;;;;;;3.20;2.50;;;;;;;22.28;59.81;101062.79;106730;1258;96602;-80
2023/07/10 06:56:52;;;;;;;3.70;2.40;;;;;;;22.38;59.47;101062.77;106669;1260;100075;-80
2023/07/10 06:59:38;;;;;;;3.60;2.40;;;;;;;22.48;58.72;101061.04;106509;1259;99067;-81
2023/07/10 07:02:24;;;;;;;5.80;2.90;;;;;;;22.58;58.53;101057.08;106782;1263;97815;-80
2023/07/10 07:05:10;;;;;;;2.80;2.60;;;;;;;22.69;58.08;101054.39;106692;1260;96620;-80
2023/07/10 07:07:55;;;;;;;2.20;2.00;;;;;;;22.78;57.74;101053.86;106630;1254;97768;-81
2023/07/10 07:10:42;;;;;;;4.40;2.40;;;;;;;22.86;56.49;101056.23;107012;1254;100078;-80
2023/07/10 07:13:27;;;;;;;3.40;2.10;;;;;;;22.93;56.39;101056.14;106914;1260;100563;-80
2023/07/10 07:16:13;;;;;;;2.50;2.20;;;;;;;23.02;56.76;101054.70;106949;1254;97776;-81
2023/07/10 07:18:59;;;;;;;4.10;2.50;;;;;;;23.12;56.19;101051.16;106790;1258;96609;-81
2023/07/10 07:21:44;;;;;;;4.90;2.50;;;;;;;23.22;55.77;101049.95;106931;1260;95900;-82
2023/07/10 07:24:30;;;;;;;3.30;1.80;;;;;;;23.29;55.23;101043.95;106889;1257;100804;-81
2023/07/10 07:27:15;;;;;;;2.20;2.00;;;;;;;23.39;55.47;101048.80;106857;1260;99758;-81
2023/07/10 07:30:04;;;;;;;2.70;2.10;;;;;;;23.50;55.08;101048.42;106784;1255;98940;-81
2023/07/10 07:32:50;;;;;;;4.10;2.20;;;;;;;23.59;54.81;101043.73;106747;1254;97211;-80
2023/07/10 07:35:37;;;;;;;3.00;1.90;;;;;;;23.67;53.81;101043.04;106747;1254;96531;-81
2023/07/10 07:38:22;;;;;;;2.10;1.90;;;;;;;23.71;53.22;101042.73;106837;1255;100769;-81
2023/07/10 07:41:08;;;;;;;2.70;1.90;;;;;;;23.76;52.96;101041.20;106770;1255;99100;-81
2023/07/10 07:43:53;;;;;;;2.40;1.90;;;;;;;23.84;53.31;101038.95;106723;1261;98463;-81
2023/07/10 07:46:39;;;;;;;2.50;2.00;;;;;;;23.91;52.89;101038.95;106748;1254;96689;-81
2023/07/10 07:49:25;;;;;;;2.60;2.20;;;;;;;23.99;52.91;101035.43;106858;1254;96527;-81
2023/07/10 07:52:11;;;;;;;1.80;1.60;;;;;;;23.98;52.10;101035.10;106620;1257;100912;-81
2023/07/10 07:54:56;;;;;;;4.10;1.70;;;;;;;23.96;52.14;101034.20;106881;1254;100392;-81
2023/07/10 07:57:42;;;;;;;3.70;2.00;;;;;;;24.04;52.29;101035.48;106669;1254;97763;-81
2023/07/10 08:00:28;;;;;;;3.80;1.90;;;;;;;24.14;52.51;101037.20;106758;1260;96615;-82
2023/07/10 08:03:13;;;;;;;5.10;2.10;;;;;;;24.26;52.35;101036.94;106560;1254;96605;-79
2023/07/10 08:05:59;;;;;;;2.50;2.10;;;;;;;24.38;51.43;101031.58;106365;1254;100135;-78
2023/07/10 08:08:45;;;;;;;1.90;1.70;;;;;;;24.43;51.32;101029.61;105789;1260;99209;-79
2023/07/10 08:11:31;;;;;;;2.40;2.20;;;;;;;24.51;51.82;101024.98;106115;1259;98942;-78
2023/07/10 08:14:16;;;;;;;2.00;1.80;;;;;;;24.62;51.43;101025.25;106203;1254;97208;-80
2023/07/10 08:17:02;;;;;;;3.10;1.90;;;;;;;24.71;51.20;101026.88;106248;1260;96530;-79
2023/07/10 08:19:48;;;;;;;4.30;2.00;;;;;;;24.81;51.27;101023.54;106273;1259;100196;-79
2023/07/10 08:22:34;;;;;;;2.80;2.30;;;;;;;24.90;50.87;101015.06;106167;1254;100488;-79
2023/07/10 08:25:19;;;;;;;4.00;2.10;;;;;;;24.95;50.27;101012.55;105809;1258;99060;-78
2023/07/10 08:28:04;;;;;;;2.70;2.40;;;;;;;25.00;50.37;101010.59;105825;1258;97886;-80
2023/07/10 08:30:50;;;;;;;2.70;1.80;;;;;;;25.09;50.66;101007.91;106296;1258;96609;-80
2023/07/10 08:33:35;;;;;;;2.30;1.90;;;;;;;25.20;49.72;101014.22;106284;1254;99984;-80
2023/07/10 08:36:21;;;;;;;4.40;2.10;;;;;;;25.24;48.83;101014.40;107125;1254;99072;-80
2023/07/10 08:39:07;;;;;;;3.10;1.80;;;;;;;25.26;49.06;101014.45;107128;1260;97771;-80
2023/07/10 08:42:00;;;;;;;4.00;2.10;;;;;;;25.28;48.50;101013.13;106980;1254;96630;-80
2023/07/10 08:44:49;;;;;;;4.50;2.10;;;;;;;25.31;48.61;101011.48;106648;1254;96652;-79
2023/07/10 08:47:40;;;;;;;5.50;1.90;;;;;;;25.35;47.99;101013.63;107603;1259;100646;-80
2023/07/10 08:50:30;;;;;;;2.50;2.10;;;;;;;25.38;48.31;101010.50;106474;1260;99232;-79
2023/07/10 08:54:24;;;;;;;4.00;2.30;;;;;;;25.51;48.08;101002.96;102915;1289;636450;-78
2023/07/10 08:57:22;;;;;;;1.90;1.70;;;;;;;25.56;48.14;100997.03;105155;1267;95908;-79
2023/07/10 09:00:13;;;;;;;2.30;2.10;;;;;;;25.60;47.41;100997.36;105064;1269;95891;-78
2023/07/10 09:03:12;;;;;;;3.30;1.90;;;;;;;25.67;47.84;100999.76;104882;1271;97288;-79
2023/07/10 09:05:59;;;;;;;3.00;2.50;;;;;;;25.74;47.76;100995.73;104996;1268;100329;-79
2023/07/10 09:08:52;;;;;;;2.20;2.00;;;;;;;25.79;46.86;100990.08;105821;1251;118368;-78
2023/07/10 09:11:38;;;;;;;4.20;2.10;;;;;;;25.82;46.74;100988.24;106651;1252;95864;-79
2023/07/10 09:14:35;;;;;;;2.90;1.70;;;;;;;25.88;46.46;100986.65;107535;1249;94316;-79
2023/07/10 09:17:39;;;;;;;3.30;1.80;;;;;;;25.92;45.98;100985.16;107325;1253;97474;-80
2023/07/10 09:20:25;;;;;;;2.80;2.10;;;;;;;25.96;46.16;100976.31;106496;1252;100049;-79
2023/07/10 09:23:21;;;;;;;3.20;1.90;;;;;;;26.00;45.63;100981.68;105959;1255;99063;-79
2023/07/10 09:26:12;;;;;;;3.60;1.90;;;;;;;26.00;44.87;100977.17;106335;1255;95883;-79
2023/07/10 09:29:04;;;;;;;2.60;1.90;;;;;;;26.00;44.55;100977.13;106461;1254;95890;-79
2023/07/10 09:32:02;;;;;;;2.30;2.10;;;;;;;26.06;44.40;100975.67;106523;1255;99233;-79
2023/07/10 09:34:58;;;;;;;2.00;1.80;;;;;;;26.08;43.80;100974.54;106351;1255;100367;-79
2023/07/10 09:37:49;;;;;;;3.90;1.60;;;;;;;26.08;43.53;100973.65;106295;1254;98509;-79
2023/07/10 09:40:37;;;;;;;2.10;1.50;;;;;;;26.13;43.35;100974.42;106488;1256;97192;-80
2023/07/10 09:43:24;;;;;;;4.40;1.60;;;;;;;26.19;43.56;100969.73;106612;1256;96277;-80
2023/07/10 09:46:11;;;;;;;3.10;1.80;;;;;;;26.23;42.96;100960.25;106526;1254;98626;-80
2023/07/10 09:49:00;;;;;;;3.40;1.80;;;;;;;26.30;43.03;100964.02;106444;1257;100334;-79
2023/07/10 09:51:57;;;;;;;4.10;1.60;;;;;;;26.43;42.59;100961.31;106426;1258;97802;-79
2023/07/10 09:54:42;;;;;;;4.50;2.20;;;;;;;26.53;42.44;100967.42;106508;1257;95893;-80
2023/07/10 09:57:28;;;;;;;2.50;2.00;;;;;;;26.52;41.38;100970.50;106411;1254;95872;-79
2023/07/10 10:00:19;;;;;;;4.00;1.90;;;;;;;26.44;41.61;100970.33;106704;1258;100103;-80
2023/07/10 10:03:13;;;;;;;4.40;1.80;;;;;;;26.41;41.46;100969.34;106619;1253;99274;-80
2023/07/10 10:06:01;;;;;;;2.00;1.80;;;;;;;26.42;41.98;100965.34;106674;1256;97703;-80
2023/07/10 10:08:48;;;;;;;3.60;1.70;;;;;;;26.50;41.76;100967.48;106779;1254;95948;-80
2023/07/10 10:11:44;;;;;;;2.30;1.80;;;;;;;26.54;41.15;100967.85;106720;1255;95954;-80
2023/07/10 10:14:40;;;;;;;2.90;2.00;;;;;;;26.56;41.42;100969.21;106798;1254;99870;-80
2023/07/10 10:17:32;;;;;;;3.40;2.30;;;;;;;26.62;41.67;100965.05;106735;1254;100207;-80
2023/07/10 10:20:29;;;;;;;2.40;1.80;;;;;;;26.69;41.13;100958.41;106801;1258;98960;-81
2023/07/10 10:23:29;;;;;;;2.80;2.00;;;;;;;26.75;41.19;100952.14;106755;1257;96152;-80
2023/07/10 10:26:33;;;;;;;4.70;1.70;;;;;;;26.85;41.47;100947.45;106845;1253;95953;-80
2023/07/10 10:29:48;;;;;;;2.10;1.60;;;;;;;26.91;40.77;100953.24;106854;1256;98696;-80
2023/07/10 10:32:41;;;;;;;1.60;1.50;;;;;;;26.94;40.36;100952.83;106634;1254;100586;-80
2023/07/10 10:35:27;;;;;;;3.00;1.90;;;;;;;27.00;40.18;100948.06;106596;1254;97711;-80
2023/07/10 10:38:21;;;;;;;3.60;1.90;;;;;;;27.03;40.84;100944.06;106652;1256;95863;-80
2023/07/10 10:41:25;;;;;;;2.40;1.70;;;;;;;27.07;40.68;100941.80;106116;1253;95818;-79
2023/07/10 10:44:41;;;;;;;4.20;1.50;;;;;;;27.06;40.38;100943.67;106833;1254;99189;-80
2023/07/10 10:47:27;;;;;;;1.70;1.50;;;;;;;26.95;40.15;100938.27;106577;1255;100552;-80
2023/07/10 10:50:35;;;;;;;3.60;1.80;;;;;;;26.86;39.98;100931.85;106576;1253;98560;-80
2023/07/10 10:53:36;;;;;;;2.50;1.60;;;;;;;26.85;40.34;100928.13;106672;1254;96423;-80
2023/07/10 10:56:28;;;;;;;3.50;1.60;;;;;;;26.87;40.70;100923.32;106185;1258;95915;-80
2023/07/10 10:59:41;;;;;;;1.60;1.50;;;;;;;26.90;39.88;100916.09;106051;1259;99541;-80
2023/07/10 11:02:31;;;;;;;3.40;1.70;;;;;;;26.91;39.92;100908.94;106050;1258;100271;-79
2023/07/10 11:05:40;;;;;;;2.20;1.80;;;;;;;26.97;40.14;100903.65;105780;1255;97639;-80
2023/07/10 11:08:44;;;;;;;4.90;2.10;;;;;;;27.03;39.74;100899.42;106156;1255;96325;-79
2023/07/10 11:11:34;;;;;;;2.00;1.80;;;;;;;27.12;40.07;100895.23;105590;1256;96336;-78
2023/07/10 11:14:21;;;;;;;1.90;1.70;;;;;;;27.20;40.03;100893.77;105315;1255;98730;-78
2023/07/10 11:17:10;;;;;;;1.70;1.50;;;;;;;27.21;39.31;100892.81;106429;1256;100551;-79
2023/07/10 11:19:56;;;;;;;3.10;1.50;;;;;;;27.20;39.50;100896.02;105382;1258;98357;-77
2023/07/10 11:22:53;;;;;;;3.10;1.60;;;;;;;27.18;39.38;100891.64;105526;1256;95913;-77
2023/07/10 11:25:44;;;;;;;1.70;1.50;;;;;;;27.17;39.13;100890.78;105917;1256;96506;-79
2023/07/10 11:28:31;;;;;;;2.10;1.80;;;;;;;27.18;39.63;100885.48;106057;1258;100079;-79
2023/07/10 11:31:30;;;;;;;4.50;2.30;;;;;;;27.22;39.67;100883.67;105985;1258;99067;-79
2023/07/10 11:34:30;;;;;;;;;;;;;;;27.27;38.96;100879.73;105917;1258;98822;-79
2023/07/10 11:37:34;;;;;;;2.80;1.50;;;;;;;27.36;38.85;100879.00;105985;1254;97018;-79
2023/07/10 11:40:23;;;;;;;3.70;1.80;;;;;;;27.45;39.27;100873.69;105975;1259;96051;-79
2023/07/10 11:43:27;;;;;;;1.90;1.50;;;;;;;27.50;39.16;100868.79;105983;1253;98742;-78
2023/07/10 11:46:21;;;;;;;3.80;1.60;;;;;;;27.53;38.99;100865.50;105387;1254;99105;-79
2023/07/10 11:49:15;;;;;;;2.20;1.80;;;;;;;27.57;38.77;100861.23;106033;1258;99082;-79
2023/07/10 11:52:15;;;;;;;1.70;1.40;;;;;;;27.65;39.04;100861.91;108049;1254;95287;-79
2023/07/10 11:55:06;;;;;;;2.00;1.50;;;;;;;27.71;38.57;100862.27;106220;1258;95899;-80
2023/07/10 11:58:25;;;;;;;2.10;1.60;;;;;;;27.66;37.98;100860.56;106477;1255;98807;-80
2023/07/10 12:01:20;;;;;;;5.20;1.40;;;;;;;27.59;37.22;100857.89;106240;1258;99122;-80
2023/07/10 12:04:14;;;;;;;1.50;1.40;;;;;;;27.56;36.95;100853.86;106338;1256;97715;-79
2023/07/10 12:06:59;;;;;;;3.70;1.60;;;;;;;27.57;36.59;100850.00;106332;1258;95894;-79
2023/07/10 12:09:52;;;;;;;2.40;1.70;;;;;;;27.57;35.92;100843.33;106023;1254;95928;-79
2023/07/10 12:12:38;;;;;;;2.60;1.50;;;;;;;27.57;36.38;100845.98;107262;1259;108446;-79
2023/07/10 12:15:25;;;;;;;1.90;1.50;;;;;;;27.56;37.02;100842.96;106015;1259;100461;-79
2023/07/10 12:18:15;;;;;;;3.30;1.60;;;;;;;27.55;36.76;100843.58;105861;1255;99017;-78
2023/07/10 12:21:03;;;;;;;1.70;1.50;;;;;;;27.57;37.46;100842.51;106720;1269;95909;-79
2023/07/10 12:23:59;;;;;;;1.60;1.50;;;;;;;27.62;37.01;100844.21;106319;1258;95714;-79
2023/07/10 12:26:51;;;;;;;1.50;1.20;;;;;;;27.63;36.85;100845.15;106060;1257;99521;-79
2023/07/10 12:29:38;;;;;;;1.50;1.40;;;;;;;27.67;36.92;100843.81;106059;1254;99647;-78
2023/07/10 12:32:26;;;;;;;1.70;1.40;;;;;;;27.71;37.32;100844.15;106190;1254;98952;-79
2023/07/10 12:35:14;;;;;;;2.60;1.40;;;;;;;27.78;37.04;100843.19;106109;1254;95874;-79
2023/07/10 12:38:03;;;;;;;4.50;2.10;;;;;;;27.85;36.23;100839.02;106047;1258;96591;-79
2023/07/10 12:40:48;;;;;;;1.90;1.60;;;;;;;27.88;35.80;100832.66;106341;1254;98661;-79
2023/07/10 12:43:34;;;;;;;1.90;1.60;;;;;;;27.87;35.88;100826.11;106119;1254;99081;-79
2023/07/10 12:46:26;;;;;;;6.70;1.50;;;;;;;27.88;35.75;100815.14;106206;1258;97841;-79
2023/07/10 12:49:16;;;;;;;2.90;1.40;;;;;;;27.87;35.75;100811.63;106186;1254;95819;-79
2023/07/10 12:52:06;;;;;;;1.40;1.20;;;;;;;27.84;34.96;100816.08;106280;1257;97545;-79
2023/07/10 12:54:54;;;;;;;1.40;1.30;;;;;;;27.80;34.91;100816.02;106340;1253;98665;-79
2023/07/10 12:57:40;;;;;;;3.90;1.40;;;;;;;27.85;34.79;100815.66;106401;1254;99115;-79